createdAt,value
2018-03-22T00:00:54.523Z,59.97
2018-03-22T00:01:54.471Z,60.25
2018-03-22T00:02:54.420Z,60.06
2018-03-22T00:03:54.369Z,59.78
2018-03-22T00:04:54.317Z,60.53
2018-03-22T00:05:54.265Z,60.44
2018-03-22T00:06:54.215Z,61.01
2018-03-22T00:07:54.165Z,61.01
2018-03-22T00:08:54.111Z,60.63
2018-03-22T00:09:54.059Z,60.92
2018-03-22T00:10:54.008Z,60.92
2018-03-22T00:11:53.957Z,60.73
2018-03-22T00:12:53.906Z,60.63
2018-03-22T00:13:53.853Z,60.63
2018-03-22T00:14:53.801Z,60.92
2018-03-22T00:15:53.750Z,61.30
2018-03-22T00:16:53.698Z,60.92
2018-03-22T00:17:53.646Z,60.92
2018-03-22T00:18:53.594Z,61.49
2018-03-22T00:19:53.544Z,61.30
2018-03-22T00:20:53.495Z,61.30
2018-03-22T00:21:53.440Z,61.39
2018-03-22T00:22:53.392Z,61.77
2018-03-22T00:23:53.337Z,61.39
2018-03-22T00:24:53.284Z,61.68
2018-03-22T00:25:53.233Z,61.68
2018-03-22T00:26:53.182Z,62.05
2018-03-22T00:27:53.131Z,62.15
2018-03-22T00:28:53.078Z,61.77
2018-03-22T00:29:53.077Z,62.24
2018-03-22T00:30:52.977Z,62.53
2018-03-22T00:31:52.923Z,62.53
2018-03-22T00:32:52.873Z,62.34
2018-03-22T00:33:52.820Z,62.43
2018-03-22T00:34:52.769Z,62.43
2018-03-22T00:35:52.718Z,62.43
2018-03-22T00:36:52.665Z,62.24
2018-03-22T00:37:52.614Z,62.34
2018-03-22T00:38:52.563Z,62.62
2018-03-22T00:39:52.511Z,62.53
2018-03-22T00:40:52.459Z,62.53
2018-03-22T00:41:52.457Z,62.34
2018-03-22T00:42:52.356Z,62.62
2018-03-22T00:43:52.305Z,62.72
2018-03-22T00:44:52.252Z,62.53
2018-03-22T00:45:52.201Z,62.43
2018-03-22T00:46:52.162Z,62.53
2018-03-22T00:47:52.098Z,62.62
2018-03-22T00:48:52.049Z,62.43
2018-03-22T00:49:51.995Z,62.91
2018-03-22T00:50:51.943Z,63.39
2018-03-22T00:51:51.892Z,62.82
2018-03-22T00:52:51.841Z,62.82
2018-03-22T00:53:51.789Z,63.10
2018-03-22T00:54:51.737Z,62.91
2018-03-22T00:55:51.686Z,62.82
2018-03-22T00:56:51.633Z,63.01
2018-03-22T00:57:51.582Z,63.29
2018-03-22T00:58:51.530Z,63.29
2018-03-22T00:59:51.485Z,63.10
2018-03-22T01:00:51.428Z,62.82
2018-03-22T01:01:51.375Z,62.91
2018-03-22T01:02:51.324Z,62.62
2018-03-22T01:03:51.273Z,62.53
2018-03-22T01:04:51.222Z,62.91
2018-03-22T01:05:51.170Z,63.01
2018-03-22T01:06:51.126Z,63.10
2018-03-22T01:07:51.067Z,62.82
2018-03-22T01:08:51.016Z,63.20
2018-03-22T01:09:50.964Z,63.29
2018-03-22T01:10:50.917Z,63.67
2018-03-22T01:11:50.861Z,63.86
2018-03-22T01:12:50.808Z,63.67
2018-03-22T01:13:50.757Z,63.29
2018-03-22T01:14:50.706Z,63.29
2018-03-22T01:15:50.655Z,63.57
2018-03-22T01:16:50.602Z,63.95
2018-03-22T01:17:50.551Z,63.76
2018-03-22T01:18:50.499Z,63.95
2018-03-22T01:19:50.451Z,64.05
2018-03-22T01:20:50.396Z,63.67
2018-03-22T01:21:50.346Z,63.95
2018-03-22T01:22:50.293Z,63.95
2018-03-22T01:23:50.241Z,64.71
2018-03-22T01:24:50.189Z,64.62
2018-03-22T01:25:50.138Z,65.09
2018-03-22T01:26:50.137Z,64.97
2018-03-22T01:27:50.038Z,65.06
2018-03-22T01:28:49.983Z,65.06
2018-03-22T01:29:49.931Z,65.19
2018-03-22T01:30:49.880Z,65.72
2018-03-22T01:31:49.828Z,65.53
2018-03-22T01:32:49.782Z,65.82
2018-03-22T01:33:49.725Z,66.20
2018-03-22T01:34:49.772Z,66.67
2018-03-22T01:35:49.621Z,66.58
2018-03-22T01:36:49.568Z,66.77
2018-03-22T01:37:49.516Z,66.96
2018-03-22T01:38:49.465Z,66.67
2018-03-22T01:39:49.413Z,67.33
2018-03-22T01:40:49.363Z,67.14
2018-03-22T01:41:49.309Z,67.24
2018-03-22T01:42:49.257Z,66.96
2018-03-22T01:43:49.206Z,66.77
2018-03-22T01:44:49.153Z,67.33
2018-03-22T01:45:49.101Z,67.52
2018-03-22T01:46:49.050Z,66.67
2018-03-22T01:47:48.998Z,67.43
2018-03-22T01:48:48.946Z,67.62
2018-03-22T01:49:48.893Z,66.77
2018-03-22T01:50:48.842Z,66.86
2018-03-22T01:51:48.792Z,67.24
2018-03-22T01:52:48.738Z,67.14
2018-03-22T01:53:48.688Z,66.86
2018-03-22T01:54:48.637Z,67.43
2018-03-22T01:55:48.582Z,66.86
2018-03-22T01:56:48.530Z,67.52
2018-03-22T01:57:48.479Z,67.14
2018-03-22T01:58:48.427Z,67.24
2018-03-22T01:59:48.376Z,67.43
2018-03-22T02:00:48.323Z,67.33
2018-03-22T02:01:48.323Z,67.33
2018-03-22T02:02:48.220Z,67.33
2018-03-22T02:03:48.168Z,67.24
2018-03-22T02:04:48.121Z,67.52
2018-03-22T02:05:48.064Z,66.77
2018-03-22T02:06:48.013Z,67.52
2018-03-22T02:07:47.961Z,67.52
2018-03-22T02:08:47.908Z,67.52
2018-03-22T02:09:47.856Z,67.43
2018-03-22T02:10:47.806Z,67.43
2018-03-22T02:11:47.754Z,67.52
2018-03-22T02:12:47.704Z,67.81
2018-03-22T02:13:47.649Z,67.43
2018-03-22T02:14:47.598Z,66.67
2018-03-22T02:15:47.547Z,66.86
2018-03-22T02:16:47.494Z,67.24
2018-03-22T02:17:47.442Z,67.43
2018-03-22T02:18:47.391Z,67.14
2018-03-22T02:19:47.339Z,67.14
2018-03-22T02:20:47.287Z,67.52
2018-03-22T02:21:47.235Z,67.43
2018-03-22T02:22:47.183Z,67.62
2018-03-22T02:23:47.131Z,67.52
2018-03-22T02:24:47.079Z,67.33
2018-03-22T02:25:47.027Z,67.71
2018-03-22T02:26:46.982Z,67.33
2018-03-22T02:27:46.924Z,67.52
2018-03-22T02:28:46.871Z,67.68
2018-03-22T02:29:46.822Z,67.96
2018-03-22T02:30:46.773Z,68.25
2018-03-22T02:31:46.766Z,67.33
2018-03-22T02:32:46.728Z,67.21
2018-03-22T02:33:46.612Z,67.77
2018-03-22T02:34:46.560Z,67.40
2018-03-22T02:35:46.510Z,68.15
2018-03-22T02:36:46.457Z,67.96
2018-03-22T02:37:46.417Z,68.35
2018-03-22T02:38:46.352Z,68.35
2018-03-22T02:39:46.301Z,68.06
2018-03-22T02:40:46.247Z,68.35
2018-03-22T02:41:46.196Z,67.96
2018-03-22T02:42:46.159Z,67.87
2018-03-22T02:43:46.093Z,68.25
2018-03-22T02:44:46.040Z,67.87
2018-03-22T02:45:45.989Z,67.96
2018-03-22T02:46:45.936Z,67.58
2018-03-22T02:47:45.885Z,68.15
2018-03-22T02:48:45.831Z,68.25
2018-03-22T02:49:45.780Z,67.87
2018-03-22T02:50:45.727Z,68.15
2018-03-22T02:51:45.676Z,68.35
2018-03-22T02:52:45.622Z,68.25
2018-03-22T02:53:45.571Z,68.35
2018-03-22T02:54:45.520Z,67.02
2018-03-22T02:55:45.468Z,67.21
2018-03-22T02:56:45.416Z,67.40
2018-03-22T02:57:45.361Z,67.49
2018-03-22T02:58:45.310Z,67.30
2018-03-22T02:59:45.266Z,67.52
2018-03-22T03:00:45.206Z,68.00
2018-03-22T03:01:45.153Z,67.90
2018-03-22T03:02:45.101Z,67.52
2018-03-22T03:03:45.049Z,67.43
2018-03-22T03:04:44.998Z,67.33
2018-03-22T03:05:44.944Z,67.33
2018-03-22T03:06:44.893Z,67.24
2018-03-22T03:07:44.840Z,67.05
2018-03-22T03:08:44.787Z,67.24
2018-03-22T03:09:44.747Z,67.24
2018-03-22T03:10:44.683Z,67.43
2018-03-22T03:11:44.677Z,67.33
2018-03-22T03:12:44.580Z,67.14
2018-03-22T03:13:44.526Z,67.33
2018-03-22T03:14:44.487Z,67.14
2018-03-22T03:15:44.431Z,67.14
2018-03-22T03:16:44.370Z,67.05
2018-03-22T03:17:44.318Z,67.14
2018-03-22T03:18:44.265Z,67.33
2018-03-22T03:19:44.214Z,67.33
2018-03-22T03:20:44.161Z,67.24
2018-03-22T03:21:44.109Z,67.52
2018-03-22T03:22:44.057Z,67.02
2018-03-22T03:23:44.004Z,66.93
2018-03-22T03:24:43.951Z,67.33
2018-03-22T03:25:43.908Z,66.86
2018-03-22T03:26:43.848Z,67.52
2018-03-22T03:27:43.795Z,66.83
2018-03-22T03:28:43.743Z,67.33
2018-03-22T03:29:43.691Z,67.24
2018-03-22T03:30:43.646Z,67.49
2018-03-22T03:31:43.593Z,67.40
2018-03-22T03:32:43.534Z,66.74
2018-03-22T03:33:43.481Z,67.58
2018-03-22T03:34:43.434Z,67.30
2018-03-22T03:35:43.383Z,67.77
2018-03-22T03:36:43.324Z,67.62
2018-03-22T03:37:43.272Z,67.24
2018-03-22T03:38:43.221Z,67.62
2018-03-22T03:39:43.169Z,67.52
2018-03-22T03:40:43.116Z,67.24
2018-03-22T03:41:43.064Z,66.77
2018-03-22T03:42:43.012Z,67.30
2018-03-22T03:43:42.960Z,67.30
2018-03-22T03:44:42.907Z,66.93
2018-03-22T03:45:42.855Z,66.93
2018-03-22T03:46:42.803Z,67.33
2018-03-22T03:47:42.751Z,66.96
2018-03-22T03:48:42.698Z,66.96
2018-03-22T03:49:42.646Z,67.30
2018-03-22T03:50:42.594Z,66.86
2018-03-22T03:51:42.541Z,66.83
2018-03-22T03:52:42.487Z,66.93
2018-03-22T03:53:42.436Z,67.21
2018-03-22T03:54:42.388Z,67.30
2018-03-22T03:55:42.331Z,67.40
2018-03-22T03:56:42.277Z,66.93
2018-03-22T03:57:42.226Z,67.40
2018-03-22T03:58:42.174Z,66.83
2018-03-22T03:59:42.125Z,67.40
2018-03-22T04:00:42.069Z,67.49
2018-03-22T04:01:42.017Z,67.58
2018-03-22T04:02:41.964Z,67.40
2018-03-22T04:03:41.911Z,67.49
2018-03-22T04:04:41.858Z,66.93
2018-03-22T04:05:41.807Z,67.49
2018-03-22T04:06:41.754Z,67.40
2018-03-22T04:07:41.702Z,67.40
2018-03-22T04:08:41.649Z,67.49
2018-03-22T04:09:41.597Z,67.58
2018-03-22T04:10:41.545Z,67.40
2018-03-22T04:11:41.493Z,67.49
2018-03-22T04:12:41.439Z,67.49
2018-03-22T04:13:41.387Z,67.49
2018-03-22T04:14:41.335Z,67.49
2018-03-22T04:15:41.284Z,66.83
2018-03-22T04:16:41.230Z,67.58
2018-03-22T04:17:41.177Z,67.21
2018-03-22T04:18:41.126Z,67.21
2018-03-22T04:19:41.074Z,67.21
2018-03-22T04:20:41.019Z,67.11
2018-03-22T04:21:40.967Z,66.64
2018-03-22T04:22:40.915Z,66.83
2018-03-22T04:23:40.862Z,67.30
2018-03-22T04:24:40.809Z,67.11
2018-03-22T04:25:40.756Z,67.21
2018-03-22T04:26:40.707Z,66.93
2018-03-22T04:27:40.652Z,66.93
2018-03-22T04:28:40.598Z,66.93
2018-03-22T04:29:40.546Z,66.74
2018-03-22T04:30:40.493Z,66.93
2018-03-22T04:31:40.441Z,66.74
2018-03-22T04:32:40.387Z,67.21
2018-03-22T04:33:40.339Z,67.02
2018-03-22T04:34:40.284Z,66.93
2018-03-22T04:35:40.231Z,66.83
2018-03-22T04:36:40.178Z,67.11
2018-03-22T04:37:40.125Z,67.11
2018-03-22T04:38:40.078Z,67.11
2018-03-22T04:39:40.019Z,67.11
2018-03-22T04:40:39.967Z,67.21
2018-03-22T04:41:39.913Z,67.02
2018-03-22T04:42:39.869Z,66.93
2018-03-22T04:43:39.811Z,66.93
2018-03-22T04:44:39.755Z,66.93
2018-03-22T04:45:39.702Z,67.30
2018-03-22T04:46:39.650Z,67.11
2018-03-22T04:47:39.597Z,67.30
2018-03-22T04:48:39.551Z,67.30
2018-03-22T04:49:39.491Z,67.21
2018-03-22T04:50:39.439Z,66.83
2018-03-22T04:51:39.387Z,66.54
2018-03-22T04:52:39.333Z,66.54
2018-03-22T04:53:39.281Z,66.83
2018-03-22T04:54:39.227Z,66.54
2018-03-22T04:55:39.177Z,66.74
2018-03-22T04:56:39.122Z,66.64
2018-03-22T04:57:39.070Z,66.74
2018-03-22T04:58:39.021Z,66.54
2018-03-22T04:59:38.965Z,66.54
2018-03-22T05:00:38.911Z,66.64
2018-03-22T05:01:38.874Z,66.83
2018-03-22T05:02:38.807Z,67.11
2018-03-22T05:03:38.753Z,66.83
2018-03-22T05:04:38.701Z,66.45
2018-03-22T05:05:38.647Z,66.83
2018-03-22T05:06:38.595Z,66.54
2018-03-22T05:07:38.542Z,66.93
2018-03-22T05:08:38.488Z,66.83
2018-03-22T05:09:38.436Z,66.64
2018-03-22T05:10:38.384Z,66.64
2018-03-22T05:11:38.331Z,66.74
2018-03-22T05:12:38.278Z,66.64
2018-03-22T05:13:38.226Z,66.83
2018-03-22T05:14:38.172Z,66.54
2018-03-22T05:15:38.120Z,66.64
2018-03-22T05:16:38.067Z,66.64
2018-03-22T05:17:38.014Z,66.83
2018-03-22T05:18:38.017Z,66.83
2018-03-22T05:19:37.910Z,66.64
2018-03-22T05:20:37.856Z,66.83
2018-03-22T05:21:37.803Z,66.83
2018-03-22T05:22:37.751Z,66.74
2018-03-22T05:23:37.699Z,66.64
2018-03-22T05:24:37.646Z,66.45
2018-03-22T05:25:37.597Z,66.54
2018-03-22T05:26:37.540Z,66.26
2018-03-22T05:27:37.488Z,66.26
2018-03-22T05:28:37.484Z,65.88
2018-03-22T05:29:37.387Z,65.78
2018-03-22T05:30:37.331Z,65.97
2018-03-22T05:31:37.278Z,65.97
2018-03-22T05:32:37.224Z,65.97
2018-03-22T05:33:37.172Z,65.78
2018-03-22T05:34:37.120Z,66.07
2018-03-22T05:35:37.078Z,65.97
2018-03-22T05:36:37.014Z,66.07
2018-03-22T05:37:36.962Z,66.26
2018-03-22T05:38:36.910Z,66.45
2018-03-22T05:39:36.857Z,65.97
2018-03-22T05:40:36.808Z,65.78
2018-03-22T05:41:36.752Z,65.59
2018-03-22T05:42:36.699Z,65.31
2018-03-22T05:43:36.647Z,65.41
2018-03-22T05:44:36.594Z,65.31
2018-03-22T05:45:36.542Z,65.69
2018-03-22T05:46:36.490Z,65.59
2018-03-22T05:47:36.438Z,65.59
2018-03-22T05:48:36.384Z,65.44
2018-03-22T05:49:36.331Z,65.25
2018-03-22T05:50:36.280Z,65.34
2018-03-22T05:51:36.228Z,65.82
2018-03-22T05:52:36.175Z,66.10
2018-03-22T05:53:36.122Z,65.82
2018-03-22T05:54:36.070Z,65.63
2018-03-22T05:55:36.018Z,64.97
2018-03-22T05:56:35.975Z,64.97
2018-03-22T05:57:35.912Z,65.44
2018-03-22T05:58:35.860Z,65.53
2018-03-22T05:59:35.808Z,65.34
2018-03-22T06:00:35.755Z,65.72
2018-03-22T06:01:35.704Z,65.63
2018-03-22T06:02:35.652Z,65.53
2018-03-22T06:03:35.599Z,65.34
2018-03-22T06:04:35.547Z,66.29
2018-03-22T06:05:35.494Z,65.82
2018-03-22T06:06:35.443Z,66.20
2018-03-22T06:07:35.390Z,66.77
2018-03-22T06:08:35.338Z,66.77
2018-03-22T06:09:35.286Z,67.05
2018-03-22T06:10:35.233Z,67.33
2018-03-22T06:11:35.182Z,67.62
2018-03-22T06:12:35.128Z,68.00
2018-03-22T06:13:35.077Z,68.00
2018-03-22T06:14:35.024Z,68.57
2018-03-22T06:15:34.972Z,68.76
2018-03-22T06:16:34.952Z,68.85
2018-03-22T06:17:34.867Z,68.66
2018-03-22T06:18:34.820Z,68.95
2018-03-22T06:19:34.768Z,69.33
2018-03-22T06:20:34.709Z,69.52
2018-03-22T06:21:34.657Z,69.33
2018-03-22T06:22:34.606Z,69.52
2018-03-22T06:23:34.554Z,69.52
2018-03-22T06:24:34.501Z,69.33
2018-03-22T06:25:34.455Z,69.42
2018-03-22T06:26:34.397Z,69.52
2018-03-22T06:27:34.352Z,68.85
2018-03-22T06:28:34.292Z,68.76
2018-03-22T06:29:34.240Z,68.85
2018-03-22T06:30:34.188Z,68.48
2018-03-22T06:31:34.142Z,67.81
2018-03-22T06:32:34.082Z,67.81
2018-03-22T06:33:34.030Z,67.71
2018-03-22T06:34:33.980Z,67.90
2018-03-22T06:35:33.932Z,67.71
2018-03-22T06:36:33.873Z,67.27
2018-03-22T06:37:33.821Z,66.89
2018-03-22T06:38:33.773Z,67.37
2018-03-22T06:39:33.720Z,67.37
2018-03-22T06:40:33.665Z,66.80
2018-03-22T06:41:33.613Z,66.89
2018-03-22T06:42:33.564Z,67.46
2018-03-22T06:43:33.510Z,67.75
2018-03-22T06:44:33.455Z,66.77
2018-03-22T06:45:33.405Z,67.33
2018-03-22T06:46:33.353Z,67.62
2018-03-22T06:47:33.303Z,68.19
2018-03-22T06:48:33.248Z,68.00
2018-03-22T06:49:33.210Z,68.38
2018-03-22T06:50:33.144Z,68.29
2018-03-22T06:51:33.092Z,68.29
2018-03-22T06:52:33.040Z,68.29
2018-03-22T06:53:32.989Z,69.04
2018-03-22T06:54:32.935Z,69.42
2018-03-22T06:55:32.884Z,69.42
2018-03-22T06:56:32.830Z,70.37
2018-03-22T06:57:32.779Z,70.75
2018-03-22T06:58:32.726Z,71.13
2018-03-22T06:59:32.673Z,71.32
2018-03-22T07:00:32.672Z,72.45
2018-03-22T07:01:32.570Z,72.84
2018-03-22T07:02:32.523Z,73.69
2018-03-22T07:03:32.465Z,74.07
2018-03-22T07:04:32.412Z,75.02
2018-03-22T07:05:32.364Z,75.31
2018-03-22T07:06:32.308Z,76.15
2018-03-22T07:07:32.256Z,75.78
2018-03-22T07:08:32.202Z,76.92
2018-03-22T07:09:32.150Z,77.20
2018-03-22T07:10:32.098Z,77.67
2018-03-22T07:11:32.046Z,77.92
2018-03-22T07:12:31.992Z,78.11
2018-03-22T07:13:31.992Z,78.77
2018-03-22T07:14:31.887Z,79.25
2018-03-22T07:15:31.843Z,80.10
2018-03-22T07:16:31.783Z,80.48
2018-03-22T07:17:31.730Z,80.86
2018-03-22T07:18:31.678Z,81.43
2018-03-22T07:19:31.629Z,81.71
2018-03-22T07:20:31.572Z,81.71
2018-03-22T07:21:31.522Z,82.09
2018-03-22T07:22:31.467Z,82.28
2018-03-22T07:23:31.414Z,82.56
2018-03-22T07:24:31.360Z,82.47
2018-03-22T07:25:31.356Z,83.04
2018-03-22T07:26:31.257Z,83.32
2018-03-22T07:27:31.217Z,84.08
2018-03-22T07:28:31.158Z,84.36
2018-03-22T07:29:31.097Z,84.55
2018-03-22T07:30:31.044Z,84.84
2018-03-22T07:31:30.991Z,85.22
2018-03-22T07:32:30.938Z,85.69
2018-03-22T07:33:30.886Z,85.60
2018-03-22T07:34:30.833Z,85.78
2018-03-22T07:35:30.779Z,86.07
2018-03-22T07:36:30.725Z,86.60
2018-03-22T07:37:30.673Z,86.41
2018-03-22T07:38:30.658Z,86.88
2018-03-22T07:39:30.567Z,87.16
2018-03-22T07:40:30.513Z,87.07
2018-03-22T07:41:30.509Z,86.79
2018-03-22T07:42:30.408Z,87.35
2018-03-22T07:43:30.353Z,87.73
2018-03-22T07:44:30.303Z,88.02
2018-03-22T07:45:30.246Z,87.73
2018-03-22T07:46:30.195Z,87.92
2018-03-22T07:47:30.142Z,88.30
2018-03-22T07:48:30.088Z,88.21
2018-03-22T07:49:30.035Z,88.59
2018-03-22T07:50:29.982Z,88.21
2018-03-22T07:51:29.929Z,88.11
2018-03-22T07:52:29.929Z,88.11
2018-03-22T07:53:29.822Z,88.68
2018-03-22T07:54:29.768Z,88.59
2018-03-22T07:55:29.716Z,88.78
2018-03-22T07:56:29.661Z,88.68
2018-03-22T07:57:29.608Z,88.40
2018-03-22T07:58:29.555Z,88.40
2018-03-22T07:59:29.553Z,88.59
2018-03-22T08:00:29.448Z,88.40
2018-03-22T08:01:29.396Z,88.87
2018-03-22T08:02:29.345Z,88.78
2018-03-22T08:03:29.290Z,88.78
2018-03-22T08:04:29.237Z,88.87
2018-03-22T08:05:29.183Z,89.72
2018-03-22T08:06:29.131Z,89.53
2018-03-22T08:07:29.077Z,89.25
2018-03-22T08:08:29.023Z,89.25
2018-03-22T08:09:28.974Z,89.29
2018-03-22T08:10:28.917Z,89.39
2018-03-22T08:11:28.883Z,89.20
2018-03-22T08:12:28.858Z,89.67
2018-03-22T08:13:28.755Z,89.29
2018-03-22T08:14:28.704Z,89.58
2018-03-22T08:15:28.651Z,89.39
2018-03-22T08:16:28.596Z,89.29
2018-03-22T08:17:28.545Z,88.73
2018-03-22T08:18:28.491Z,89.48
2018-03-22T08:19:28.439Z,89.20
2018-03-22T08:20:28.387Z,89.29
2018-03-22T08:21:28.336Z,89.67
2018-03-22T08:22:28.280Z,89.67
2018-03-22T08:23:28.227Z,89.58
2018-03-22T08:24:28.173Z,90.53
2018-03-22T08:25:28.120Z,90.53
2018-03-22T08:26:28.068Z,91.00
2018-03-22T08:27:28.015Z,91.00
2018-03-22T08:28:27.963Z,90.72
2018-03-22T08:29:27.907Z,90.72
2018-03-22T08:30:27.854Z,90.81
2018-03-22T08:31:27.802Z,90.81
2018-03-22T08:32:27.748Z,90.81
2018-03-22T08:33:27.695Z,90.81
2018-03-22T08:34:27.643Z,91.19
2018-03-22T08:35:27.590Z,90.81
2018-03-22T08:36:27.592Z,91.28
2018-03-22T08:37:27.483Z,90.53
2018-03-22T08:38:27.431Z,89.77
2018-03-22T08:39:27.378Z,89.29
2018-03-22T08:40:27.325Z,89.58
2018-03-22T08:41:27.271Z,90.05
2018-03-22T08:42:27.220Z,89.48
2018-03-22T08:43:27.167Z,89.58
2018-03-22T08:44:27.114Z,89.67
2018-03-22T08:45:27.061Z,89.48
2018-03-22T08:46:27.008Z,89.77
2018-03-22T08:47:26.956Z,89.58
2018-03-22T08:48:26.902Z,89.67
2018-03-22T08:49:26.850Z,89.86
2018-03-22T08:50:26.800Z,89.96
2018-03-22T08:51:26.756Z,90.24
2018-03-22T08:52:26.691Z,90.43
2018-03-22T08:53:26.643Z,90.34
2018-03-22T08:54:26.584Z,90.43
2018-03-22T08:55:26.534Z,90.53
2018-03-22T08:56:26.480Z,91.00
2018-03-22T08:57:26.427Z,90.72
2018-03-22T08:58:26.375Z,91.09
2018-03-22T08:59:26.322Z,91.47
2018-03-22T09:00:26.269Z,91.19
2018-03-22T09:01:26.216Z,91.47
2018-03-22T09:02:26.164Z,91.47
2018-03-22T09:03:26.114Z,91.28
2018-03-22T09:04:26.057Z,91.66
2018-03-22T09:05:26.004Z,91.85
2018-03-22T09:06:25.995Z,91.85
2018-03-22T09:07:25.900Z,91.85
2018-03-22T09:08:25.868Z,92.04
2018-03-22T09:09:25.795Z,92.23
2018-03-22T09:10:25.743Z,92.14
2018-03-22T09:11:25.689Z,92.14
2018-03-22T09:12:25.641Z,91.95
2018-03-22T09:13:25.587Z,92.14
2018-03-22T09:14:25.531Z,92.61
2018-03-22T09:15:25.478Z,92.52
2018-03-22T09:16:25.434Z,92.80
2018-03-22T09:17:25.374Z,92.90
2018-03-22T09:18:25.325Z,92.80
2018-03-22T09:19:25.266Z,92.42
2018-03-22T09:20:25.213Z,92.90
2018-03-22T09:21:25.162Z,92.90
2018-03-22T09:22:25.158Z,92.90
2018-03-22T09:23:25.056Z,91.95
2018-03-22T09:24:25.012Z,92.14
2018-03-22T09:25:24.951Z,92.90
2018-03-22T09:26:24.899Z,92.42
2018-03-22T09:27:24.846Z,92.71
2018-03-22T09:28:24.797Z,92.90
2018-03-22T09:29:24.740Z,92.61
2018-03-22T09:30:24.692Z,92.52
2018-03-22T09:31:24.635Z,93.18
2018-03-22T09:32:24.581Z,93.27
2018-03-22T09:33:24.529Z,92.99
2018-03-22T09:34:24.477Z,93.08
2018-03-22T09:35:24.424Z,93.27
2018-03-22T09:36:24.372Z,93.84
2018-03-22T09:37:24.317Z,93.56
2018-03-22T09:38:24.266Z,93.56
2018-03-22T09:39:24.212Z,93.27
2018-03-22T09:40:24.158Z,93.27
2018-03-22T09:41:24.106Z,93.46
2018-03-22T09:42:24.054Z,93.84
2018-03-22T09:43:24.002Z,93.84
2018-03-22T09:44:23.948Z,93.56
2018-03-22T09:45:23.896Z,93.65
2018-03-22T09:46:23.844Z,93.56
2018-03-22T09:47:23.791Z,93.56
2018-03-22T09:48:23.737Z,93.65
2018-03-22T09:49:23.684Z,93.65
2018-03-22T09:50:23.631Z,93.56
2018-03-22T09:51:23.583Z,93.65
2018-03-22T09:52:23.525Z,93.65
2018-03-22T09:53:23.473Z,93.65
2018-03-22T09:54:23.421Z,93.56
2018-03-22T09:55:23.418Z,93.46
2018-03-22T09:56:23.313Z,94.04
2018-03-22T09:57:23.261Z,93.65
2018-03-22T09:58:23.209Z,93.94
2018-03-22T09:59:23.156Z,94.51
2018-03-22T10:00:23.104Z,94.60
2018-03-22T10:01:23.050Z,94.60
2018-03-22T10:02:22.996Z,94.70
2018-03-22T10:03:22.945Z,94.23
2018-03-22T10:04:22.890Z,94.70
2018-03-22T10:05:22.841Z,94.60
2018-03-22T10:06:22.785Z,94.60
2018-03-22T10:07:22.734Z,94.23
2018-03-22T10:08:22.680Z,94.04
2018-03-22T10:09:22.629Z,94.51
2018-03-22T10:10:22.573Z,93.94
2018-03-22T10:11:22.521Z,94.04
2018-03-22T10:12:22.467Z,93.94
2018-03-22T10:13:22.415Z,94.04
2018-03-22T10:14:22.362Z,93.75
2018-03-22T10:15:22.370Z,93.94
2018-03-22T10:16:22.275Z,93.56
2018-03-22T10:17:22.203Z,93.75
2018-03-22T10:18:22.150Z,93.56
2018-03-22T10:19:22.098Z,93.65
2018-03-22T10:20:22.045Z,93.46
2018-03-22T10:21:21.992Z,93.84
2018-03-22T10:22:21.946Z,93.75
2018-03-22T10:23:21.886Z,93.65
2018-03-22T10:24:21.833Z,93.84
2018-03-22T10:25:21.781Z,93.56
2018-03-22T10:26:21.728Z,93.65
2018-03-22T10:27:21.676Z,93.56
2018-03-22T10:28:21.622Z,93.65
2018-03-22T10:29:21.570Z,93.56
2018-03-22T10:30:21.518Z,93.56
2018-03-22T10:31:21.465Z,93.56
2018-03-22T10:32:21.412Z,93.56
2018-03-22T10:33:21.360Z,94.04
2018-03-22T10:34:21.307Z,94.04
2018-03-22T10:35:21.255Z,94.42
2018-03-22T10:36:21.200Z,94.70
2018-03-22T10:37:21.148Z,94.42
2018-03-22T10:38:21.096Z,93.75
2018-03-22T10:39:21.044Z,93.94
2018-03-22T10:40:20.991Z,94.13
2018-03-22T10:41:20.938Z,94.04
2018-03-22T10:42:20.885Z,93.65
2018-03-22T10:43:20.834Z,93.46
2018-03-22T10:44:20.781Z,93.84
2018-03-22T10:45:20.727Z,93.56
2018-03-22T10:46:20.676Z,93.65
2018-03-22T10:47:20.622Z,93.65
2018-03-22T10:48:20.573Z,93.46
2018-03-22T10:49:20.524Z,93.37
2018-03-22T10:50:20.465Z,93.37
2018-03-22T10:51:20.421Z,93.27
2018-03-22T10:52:20.362Z,93.65
2018-03-22T10:53:20.308Z,93.37
2018-03-22T10:54:20.255Z,93.65
2018-03-22T10:55:20.203Z,93.56
2018-03-22T10:56:20.149Z,93.18
2018-03-22T10:57:20.097Z,93.46
2018-03-22T10:58:20.045Z,93.56
2018-03-22T10:59:19.993Z,93.65
2018-03-22T11:00:19.938Z,94.08
2018-03-22T11:01:19.888Z,94.89
2018-03-22T11:02:19.835Z,94.42
2018-03-22T11:03:19.782Z,94.60
2018-03-22T11:04:19.730Z,94.42
2018-03-22T11:05:19.677Z,94.13
2018-03-22T11:06:19.625Z,94.32
2018-03-22T11:07:19.572Z,94.04
2018-03-22T11:08:19.520Z,93.75
2018-03-22T11:09:19.467Z,94.23
2018-03-22T11:10:19.415Z,94.60
2018-03-22T11:11:19.384Z,94.04
2018-03-22T11:12:19.313Z,94.13
2018-03-22T11:13:19.259Z,93.75
2018-03-22T11:14:19.206Z,93.46
2018-03-22T11:15:19.154Z,93.65
2018-03-22T11:16:19.100Z,94.04
2018-03-22T11:17:19.048Z,94.04
2018-03-22T11:18:18.996Z,94.08
2018-03-22T11:19:18.943Z,93.37
2018-03-22T11:20:18.890Z,93.51
2018-03-22T11:21:18.838Z,93.65
2018-03-22T11:22:18.786Z,93.65
2018-03-22T11:23:18.733Z,93.80
2018-03-22T11:24:18.682Z,93.41
2018-03-22T11:25:18.629Z,93.75
2018-03-22T11:26:18.576Z,93.65
2018-03-22T11:27:18.524Z,93.27
2018-03-22T11:28:18.470Z,93.27
2018-03-22T11:29:18.418Z,93.32
2018-03-22T11:30:18.371Z,93.08
2018-03-22T11:31:18.314Z,92.94
2018-03-22T11:32:18.261Z,93.18
2018-03-22T11:33:18.209Z,93.13
2018-03-22T11:34:18.157Z,92.85
2018-03-22T11:35:18.108Z,92.66
2018-03-22T11:36:18.052Z,91.99
2018-03-22T11:37:18.000Z,92.23
2018-03-22T11:38:17.946Z,91.33
2018-03-22T11:39:17.894Z,91.52
2018-03-22T11:40:17.842Z,91.99
2018-03-22T11:41:17.794Z,91.28
2018-03-22T11:42:17.739Z,91.24
2018-03-22T11:43:17.687Z,91.52
2018-03-22T11:44:17.634Z,91.99
2018-03-22T11:45:17.581Z,91.42
2018-03-22T11:46:17.530Z,91.24
2018-03-22T11:47:17.487Z,91.80
2018-03-22T11:48:17.425Z,91.90
2018-03-22T11:49:17.382Z,91.80
2018-03-22T11:50:17.321Z,91.61
2018-03-22T11:51:17.269Z,91.80
2018-03-22T11:52:17.215Z,91.33
2018-03-22T11:53:17.164Z,91.05
2018-03-22T11:54:17.112Z,91.24
2018-03-22T11:55:17.058Z,91.42
2018-03-22T11:56:17.007Z,91.14
2018-03-22T11:57:16.955Z,91.90
2018-03-22T11:58:16.906Z,91.52
2018-03-22T11:59:16.853Z,91.05
2018-03-22T12:00:16.803Z,90.86
2018-03-22T12:01:16.747Z,90.67
2018-03-22T12:02:16.695Z,90.67
2018-03-22T12:03:16.642Z,90.76
2018-03-22T12:04:16.597Z,91.33
2018-03-22T12:05:16.539Z,90.95
2018-03-22T12:06:16.487Z,91.52
2018-03-22T12:07:16.471Z,91.05
2018-03-22T12:08:16.383Z,91.05
2018-03-22T12:09:16.331Z,90.67
2018-03-22T12:10:16.279Z,90.57
2018-03-22T12:11:16.228Z,90.29
2018-03-22T12:12:16.177Z,90.43
2018-03-22T12:13:16.123Z,89.72
2018-03-22T12:14:16.072Z,89.53
2018-03-22T12:15:16.076Z,89.91
2018-03-22T12:16:15.972Z,89.25
2018-03-22T12:17:15.916Z,89.81
2018-03-22T12:18:15.865Z,89.34
2018-03-22T12:19:15.813Z,89.53
2018-03-22T12:20:15.761Z,89.43
2018-03-22T12:21:15.711Z,89.25
2018-03-22T12:22:15.658Z,89.34
2018-03-22T12:23:15.661Z,89.39
2018-03-22T12:24:15.554Z,89.20
2018-03-22T12:25:15.503Z,89.20
2018-03-22T12:26:15.451Z,89.29
2018-03-22T12:27:15.401Z,89.39
2018-03-22T12:28:15.352Z,88.91
2018-03-22T12:29:15.297Z,88.91
2018-03-22T12:30:15.246Z,88.81
2018-03-22T12:31:15.194Z,88.53
2018-03-22T12:32:15.142Z,88.72
2018-03-22T12:33:15.091Z,88.72
2018-03-22T12:34:15.040Z,88.91
2018-03-22T12:35:14.988Z,88.91
2018-03-22T12:36:14.936Z,89.53
2018-03-22T12:37:14.885Z,88.77
2018-03-22T12:38:14.842Z,88.87
2018-03-22T12:39:14.782Z,88.58
2018-03-22T12:40:14.730Z,88.58
2018-03-22T12:41:14.678Z,88.48
2018-03-22T12:42:14.626Z,88.77
2018-03-22T12:43:14.637Z,88.48
2018-03-22T12:44:14.523Z,88.68
2018-03-22T12:45:14.476Z,88.39
2018-03-22T12:46:14.421Z,88.58
2018-03-22T12:47:14.369Z,88.68
2018-03-22T12:48:14.317Z,88.68
2018-03-22T12:49:14.266Z,88.68
2018-03-22T12:50:14.228Z,88.68
2018-03-22T12:51:14.162Z,88.68
2018-03-22T12:52:14.109Z,88.87